sensor_id;sensor_type;location;lat;lon;timestamp;temperature;humidity
27940;DHT22;15275;51.716;14.324;2023-08-06T00:00:17;21.40;74.20
27940;DHT22;15275;51.716;14.324;2023-08-06T00:02:43;21.50;74.20
27940;DHT22;15275;51.716;14.324;2023-08-06T00:05:08;21.50;74.30
27940;DHT22;15275;51.716;14.324;2023-08-06T00:07:34;21.50;74.20
27940;DHT22;15275;51.716;14.324;2023-08-06T00:09:59;21.50;74.30
27940;DHT22;15275;51.716;14.324;2023-08-06T00:12:25;21.50;74.30
27940;DHT22;15275;51.716;14.324;2023-08-06T00:14:51;21.50;74.30
27940;DHT22;15275;51.716;14.324;2023-08-06T00:17:17;21.50;74.30
27940;DHT22;15275;51.716;14.324;2023-08-06T00:19:43;21.50;74.30
27940;DHT22;15275;51.716;14.324;2023-08-06T00:22:10;21.50;74.30
27940;DHT22;15275;51.716;14.324;2023-08-06T00:24:35;21.50;74.20
27940;DHT22;15275;51.716;14.324;2023-08-06T00:27:02;21.50;74.30
27940;DHT22;15275;51.716;14.324;2023-08-06T00:29:28;21.50;74.40
27940;DHT22;15275;51.716;14.324;2023-08-06T00:31:53;21.50;74.50
27940;DHT22;15275;51.716;14.324;2023-08-06T00:34:19;21.40;74.50
27940;DHT22;15275;51.716;14.324;2023-08-06T00:36:45;21.40;74.50
27940;DHT22;15275;51.716;14.324;2023-08-06T00:39:11;21.40;74.50
27940;DHT22;15275;51.716;14.324;2023-08-06T00:41:37;21.40;74.60
27940;DHT22;15275;51.716;14.324;2023-08-06T00:44:03;21.40;74.60
27940;DHT22;15275;51.716;14.324;2023-08-06T00:46:29;21.40;74.60
27940;DHT22;15275;51.716;14.324;2023-08-06T00:48:55;21.30;74.60
27940;DHT22;15275;51.716;14.324;2023-08-06T00:51:21;21.30;74.60
27940;DHT22;15275;51.716;14.324;2023-08-06T00:53:48;21.30;74.50
27940;DHT22;15275;51.716;14.324;2023-08-06T00:56:14;21.30;74.50
27940;DHT22;15275;51.716;14.324;2023-08-06T00:58:40;21.30;74.40
27940;DHT22;15275;51.716;14.324;2023-08-06T01:01:06;21.30;74.40
27940;DHT22;15275;51.716;14.324;2023-08-06T01:03:32;21.30;74.30
27940;DHT22;15275;51.716;14.324;2023-08-06T01:05:58;21.30;74.30
27940;DHT22;15275;51.716;14.324;2023-08-06T01:16:58;21.20;74.30
27940;DHT22;15275;51.716;14.324;2023-08-06T01:19:24;21.20;74.40
27940;DHT22;15275;51.716;14.324;2023-08-06T01:21:50;21.20;74.40
27940;DHT22;15275;51.716;14.324;2023-08-06T01:24:17;21.20;74.60
27940;DHT22;15275;51.716;14.324;2023-08-06T01:26:55;21.20;74.60
27940;DHT22;15275;51.716;14.324;2023-08-06T01:29:48;21.20;74.80
27940;DHT22;15275;51.716;14.324;2023-08-06T01:32:21;21.20;75.10
27940;DHT22;15275;51.716;14.324;2023-08-06T01:34:47;21.10;75.60
27940;DHT22;15275;51.716;14.324;2023-08-06T01:37:13;21.10;75.90
27940;DHT22;15275;51.716;14.324;2023-08-06T01:39:40;21.10;76.10
27940;DHT22;15275;51.716;14.324;2023-08-06T01:42:08;21.10;76.10
27940;DHT22;15275;51.716;14.324;2023-08-06T01:44:33;21.10;76.40
27940;DHT22;15275;51.716;14.324;2023-08-06T01:46:59;21.10;76.50
27940;DHT22;15275;51.716;14.324;2023-08-06T01:49:25;21.10;76.60
27940;DHT22;15275;51.716;14.324;2023-08-06T01:51:50;21.10;76.60
27940;DHT22;15275;51.716;14.324;2023-08-06T01:54:16;21.10;76.60
27940;DHT22;15275;51.716;14.324;2023-08-06T01:56:42;21.10;76.80
27940;DHT22;15275;51.716;14.324;2023-08-06T01:59:07;21.10;76.60
27940;DHT22;15275;51.716;14.324;2023-08-06T02:01:33;21.10;76.60
27940;DHT22;15275;51.716;14.324;2023-08-06T02:03:59;21.10;76.60
27940;DHT22;15275;51.716;14.324;2023-08-06T02:06:24;21.10;76.60
27940;DHT22;15275;51.716;14.324;2023-08-06T02:08:50;21.00;76.50
27940;DHT22;15275;51.716;14.324;2023-08-06T02:11:16;21.00;76.50
27940;DHT22;15275;51.716;14.324;2023-08-06T02:13:42;21.00;76.50
27940;DHT22;15275;51.716;14.324;2023-08-06T02:16:07;21.00;76.50
27940;DHT22;15275;51.716;14.324;2023-08-06T02:18:36;21.00;76.50
27940;DHT22;15275;51.716;14.324;2023-08-06T02:21:01;21.00;76.50
27940;DHT22;15275;51.716;14.324;2023-08-06T02:23:27;21.00;76.50
27940;DHT22;15275;51.716;14.324;2023-08-06T02:26:11;21.00;76.50
27940;DHT22;15275;51.716;14.324;2023-08-06T02:28:37;20.90;76.60
27940;DHT22;15275;51.716;14.324;2023-08-06T02:31:02;21.00;76.60
27940;DHT22;15275;51.716;14.324;2023-08-06T02:33:28;21.00;76.60
27940;DHT22;15275;51.716;14.324;2023-08-06T02:36:01;21.00;76.50
27940;DHT22;15275;51.716;14.324;2023-08-06T02:38:29;21.00;76.50
27940;DHT22;15275;51.716;14.324;2023-08-06T02:40:55;21.00;76.50
27940;DHT22;15275;51.716;14.324;2023-08-06T02:43:20;21.00;76.50
27940;DHT22;15275;51.716;14.324;2023-08-06T02:45:46;21.00;76.60
27940;DHT22;15275;51.716;14.324;2023-08-06T02:48:12;20.90;76.40
27940;DHT22;15275;51.716;14.324;2023-08-06T02:50:38;20.90;76.40
27940;DHT22;15275;51.716;14.324;2023-08-06T02:53:05;20.90;76.50
27940;DHT22;15275;51.716;14.324;2023-08-06T02:55:32;20.90;76.50
27940;DHT22;15275;51.716;14.324;2023-08-06T02:57:59;20.90;76.60
27940;DHT22;15275;51.716;14.324;2023-08-06T03:00:26;20.90;76.60
27940;DHT22;15275;51.716;14.324;2023-08-06T03:02:52;20.90;76.60
27940;DHT22;15275;51.716;14.324;2023-08-06T03:05:18;20.90;76.60
27940;DHT22;15275;51.716;14.324;2023-08-06T03:07:44;20.90;76.60
27940;DHT22;15275;51.716;14.324;2023-08-06T03:10:10;20.90;76.60
27940;DHT22;15275;51.716;14.324;2023-08-06T03:12:36;20.90;76.60
27940;DHT22;15275;51.716;14.324;2023-08-06T03:15:01;20.90;76.60
27940;DHT22;15275;51.716;14.324;2023-08-06T03:17:27;20.90;76.60
27940;DHT22;15275;51.716;14.324;2023-08-06T03:19:53;20.90;76.60
27940;DHT22;15275;51.716;14.324;2023-08-06T03:22:18;20.90;76.60
27940;DHT22;15275;51.716;14.324;2023-08-06T03:24:44;20.90;76.60
27940;DHT22;15275;51.716;14.324;2023-08-06T03:27:10;20.90;76.60
27940;DHT22;15275;51.716;14.324;2023-08-06T03:29:35;20.90;76.70
27940;DHT22;15275;51.716;14.324;2023-08-06T03:32:01;20.90;76.80
27940;DHT22;15275;51.716;14.324;2023-08-06T03:34:27;20.90;76.80
27940;DHT22;15275;51.716;14.324;2023-08-06T03:36:53;20.90;76.70
27940;DHT22;15275;51.716;14.324;2023-08-06T03:39:18;20.90;76.80
27940;DHT22;15275;51.716;14.324;2023-08-06T03:41:44;20.90;76.90
27940;DHT22;15275;51.716;14.324;2023-08-06T03:44:10;20.90;76.90
27940;DHT22;15275;51.716;14.324;2023-08-06T03:46:36;20.90;77.10
27940;DHT22;15275;51.716;14.324;2023-08-06T03:49:01;20.90;77.20
27940;DHT22;15275;51.716;14.324;2023-08-06T03:51:27;20.90;77.20
27940;DHT22;15275;51.716;14.324;2023-08-06T03:53:53;20.90;77.40
27940;DHT22;15275;51.716;14.324;2023-08-06T03:56:19;20.90;77.60
27940;DHT22;15275;51.716;14.324;2023-08-06T03:58:45;20.80;78.00
27940;DHT22;15275;51.716;14.324;2023-08-06T04:01:10;20.80;78.20
27940;DHT22;15275;51.716;14.324;2023-08-06T04:03:36;20.80;78.20
27940;DHT22;15275;51.716;14.324;2023-08-06T04:06:05;20.70;78.20
27940;DHT22;15275;51.716;14.324;2023-08-06T04:08:31;20.70;78.40
27940;DHT22;15275;51.716;14.324;2023-08-06T04:10:57;20.70;78.60
27940;DHT22;15275;51.716;14.324;2023-08-06T04:13:23;20.70;78.80
27940;DHT22;15275;51.716;14.324;2023-08-06T04:15:48;20.70;78.90
27940;DHT22;15275;51.716;14.324;2023-08-06T04:18:14;20.70;79.00
27940;DHT22;15275;51.716;14.324;2023-08-06T04:20:43;20.60;79.30
27940;DHT22;15275;51.716;14.324;2023-08-06T04:23:12;20.60;79.30
27940;DHT22;15275;51.716;14.324;2023-08-06T04:25:38;20.60;79.50
27940;DHT22;15275;51.716;14.324;2023-08-06T04:28:04;20.60;79.40
27940;DHT22;15275;51.716;14.324;2023-08-06T04:30:30;20.60;79.50
27940;DHT22;15275;51.716;14.324;2023-08-06T04:32:58;20.60;79.60
27940;DHT22;15275;51.716;14.324;2023-08-06T04:35:24;20.60;79.60
27940;DHT22;15275;51.716;14.324;2023-08-06T04:37:50;20.60;79.70
27940;DHT22;15275;51.716;14.324;2023-08-06T04:40:16;20.60;79.70
27940;DHT22;15275;51.716;14.324;2023-08-06T04:42:42;20.60;79.80
27940;DHT22;15275;51.716;14.324;2023-08-06T04:45:07;20.60;79.80
27940;DHT22;15275;51.716;14.324;2023-08-06T04:47:34;20.60;79.90
27940;DHT22;15275;51.716;14.324;2023-08-06T04:49:59;20.60;79.80
27940;DHT22;15275;51.716;14.324;2023-08-06T04:52:25;20.60;79.90
27940;DHT22;15275;51.716;14.324;2023-08-06T04:54:53;20.60;79.90
27940;DHT22;15275;51.716;14.324;2023-08-06T04:57:20;20.60;80.00
27940;DHT22;15275;51.716;14.324;2023-08-06T04:59:46;20.50;79.90
27940;DHT22;15275;51.716;14.324;2023-08-06T05:02:13;20.50;80.00
27940;DHT22;15275;51.716;14.324;2023-08-06T05:04:39;20.50;80.20
27940;DHT22;15275;51.716;14.324;2023-08-06T05:07:07;20.50;80.20
27940;DHT22;15275;51.716;14.324;2023-08-06T05:09:33;20.50;80.30
27940;DHT22;15275;51.716;14.324;2023-08-06T05:12:03;20.50;80.40
27940;DHT22;15275;51.716;14.324;2023-08-06T05:14:29;20.50;80.50
27940;DHT22;15275;51.716;14.324;2023-08-06T05:16:55;20.50;80.60
27940;DHT22;15275;51.716;14.324;2023-08-06T05:19:21;20.60;80.60
27940;DHT22;15275;51.716;14.324;2023-08-06T05:21:46;20.60;80.60
27940;DHT22;15275;51.716;14.324;2023-08-06T05:24:12;20.60;81.10
27940;DHT22;15275;51.716;14.324;2023-08-06T05:26:38;20.60;83.40
27940;DHT22;15275;51.716;14.324;2023-08-06T05:29:04;20.60;83.00
27940;DHT22;15275;51.716;14.324;2023-08-06T05:31:29;20.60;82.80
27940;DHT22;15275;51.716;14.324;2023-08-06T05:33:55;20.60;82.60
27940;DHT22;15275;51.716;14.324;2023-08-06T05:36:21;20.60;82.40
27940;DHT22;15275;51.716;14.324;2023-08-06T05:38:47;20.60;82.20
27940;DHT22;15275;51.716;14.324;2023-08-06T05:41:13;20.60;82.00
27940;DHT22;15275;51.716;14.324;2023-08-06T05:43:38;20.60;82.00
27940;DHT22;15275;51.716;14.324;2023-08-06T05:46:04;20.60;81.80
27940;DHT22;15275;51.716;14.324;2023-08-06T05:48:30;20.60;81.80
27940;DHT22;15275;51.716;14.324;2023-08-06T05:50:57;20.60;81.90
27940;DHT22;15275;51.716;14.324;2023-08-06T05:53:23;20.60;81.90
27940;DHT22;15275;51.716;14.324;2023-08-06T05:55:50;20.60;81.80
27940;DHT22;15275;51.716;14.324;2023-08-06T05:58:16;20.60;81.90
27940;DHT22;15275;51.716;14.324;2023-08-06T06:00:42;20.60;81.90
27940;DHT22;15275;51.716;14.324;2023-08-06T06:03:08;20.60;81.90
27940;DHT22;15275;51.716;14.324;2023-08-06T06:05:34;20.50;81.80
27940;DHT22;15275;51.716;14.324;2023-08-06T06:08:00;20.50;81.90
27940;DHT22;15275;51.716;14.324;2023-08-06T06:10:25;20.50;81.90
27940;DHT22;15275;51.716;14.324;2023-08-06T06:12:51;20.50;82.10
27940;DHT22;15275;51.716;14.324;2023-08-06T06:15:17;20.60;82.00
27940;DHT22;15275;51.716;14.324;2023-08-06T06:17:43;20.50;82.00
27940;DHT22;15275;51.716;14.324;2023-08-06T06:20:09;20.50;82.00
27940;DHT22;15275;51.716;14.324;2023-08-06T06:22:34;20.50;82.00
27940;DHT22;15275;51.716;14.324;2023-08-06T06:25:00;20.50;82.00
27940;DHT22;15275;51.716;14.324;2023-08-06T06:27:26;20.50;82.00
27940;DHT22;15275;51.716;14.324;2023-08-06T06:29:51;20.50;82.00
27940;DHT22;15275;51.716;14.324;2023-08-06T06:32:20;20.50;82.00
27940;DHT22;15275;51.716;14.324;2023-08-06T06:34:46;20.60;82.20
27940;DHT22;15275;51.716;14.324;2023-08-06T06:37:11;20.60;82.10
27940;DHT22;15275;51.716;14.324;2023-08-06T06:39:37;20.60;82.20
27940;DHT22;15275;51.716;14.324;2023-08-06T06:42:03;20.60;82.20
27940;DHT22;15275;51.716;14.324;2023-08-06T06:44:29;20.60;82.30
27940;DHT22;15275;51.716;14.324;2023-08-06T06:46:55;20.60;82.30
27940;DHT22;15275;51.716;14.324;2023-08-06T06:49:20;20.60;82.30
27940;DHT22;15275;51.716;14.324;2023-08-06T06:51:46;20.60;82.30
27940;DHT22;15275;51.716;14.324;2023-08-06T06:54:12;20.60;82.40
27940;DHT22;15275;51.716;14.324;2023-08-06T06:56:38;20.60;82.40
27940;DHT22;15275;51.716;14.324;2023-08-06T06:59:04;20.60;82.50
27940;DHT22;15275;51.716;14.324;2023-08-06T07:01:29;20.70;82.70
27940;DHT22;15275;51.716;14.324;2023-08-06T07:03:55;20.70;82.40
27940;DHT22;15275;51.716;14.324;2023-08-06T07:06:22;20.70;82.40
27940;DHT22;15275;51.716;14.324;2023-08-06T07:08:48;20.60;82.40
27940;DHT22;15275;51.716;14.324;2023-08-06T07:11:13;20.70;82.60
27940;DHT22;15275;51.716;14.324;2023-08-06T07:13:39;20.70;82.60
27940;DHT22;15275;51.716;14.324;2023-08-06T07:16:05;20.70;82.70
27940;DHT22;15275;51.716;14.324;2023-08-06T07:18:30;20.70;82.70
27940;DHT22;15275;51.716;14.324;2023-08-06T07:20:57;20.70;82.80
27940;DHT22;15275;51.716;14.324;2023-08-06T07:23:23;20.70;82.80
27940;DHT22;15275;51.716;14.324;2023-08-06T07:25:50;20.80;82.70
27940;DHT22;15275;51.716;14.324;2023-08-06T07:28:16;20.80;82.80
27940;DHT22;15275;51.716;14.324;2023-08-06T07:30:42;20.80;82.90
27940;DHT22;15275;51.716;14.324;2023-08-06T07:33:09;20.80;83.00
27940;DHT22;15275;51.716;14.324;2023-08-06T07:35:35;20.80;82.90
27940;DHT22;15275;51.716;14.324;2023-08-06T07:38:01;20.90;83.00
27940;DHT22;15275;51.716;14.324;2023-08-06T07:40:27;20.90;83.00
27940;DHT22;15275;51.716;14.324;2023-08-06T07:42:53;20.90;83.10
27940;DHT22;15275;51.716;14.324;2023-08-06T07:45:19;20.90;83.10
27940;DHT22;15275;51.716;14.324;2023-08-06T07:47:45;20.90;83.10
27940;DHT22;15275;51.716;14.324;2023-08-06T07:50:11;20.90;83.10
27940;DHT22;15275;51.716;14.324;2023-08-06T07:52:37;21.00;83.10
27940;DHT22;15275;51.716;14.324;2023-08-06T07:55:02;21.00;83.10
27940;DHT22;15275;51.716;14.324;2023-08-06T07:57:30;21.00;83.10
27940;DHT22;15275;51.716;14.324;2023-08-06T07:59:57;21.00;83.10
27940;DHT22;15275;51.716;14.324;2023-08-06T08:02:22;21.00;83.10
27940;DHT22;15275;51.716;14.324;2023-08-06T08:04:48;21.00;83.20
27940;DHT22;15275;51.716;14.324;2023-08-06T08:07:14;21.00;83.30
27940;DHT22;15275;51.716;14.324;2023-08-06T08:09:40;21.00;83.20
27940;DHT22;15275;51.716;14.324;2023-08-06T08:12:05;21.00;83.20
27940;DHT22;15275;51.716;14.324;2023-08-06T08:14:31;21.00;83.30
27940;DHT22;15275;51.716;14.324;2023-08-06T08:17:01;21.00;83.20
27940;DHT22;15275;51.716;14.324;2023-08-06T08:19:33;21.00;83.50
27940;DHT22;15275;51.716;14.324;2023-08-06T08:21:59;21.00;83.30
27940;DHT22;15275;51.716;14.324;2023-08-06T08:24:25;21.00;83.70
27940;DHT22;15275;51.716;14.324;2023-08-06T08:26:51;21.00;83.50
27940;DHT22;15275;51.716;14.324;2023-08-06T08:29:18;21.00;83.50
27940;DHT22;15275;51.716;14.324;2023-08-06T08:31:44;21.00;83.60
27940;DHT22;15275;51.716;14.324;2023-08-06T08:34:10;21.00;83.70
27940;DHT22;15275;51.716;14.324;2023-08-06T08:36:36;21.10;83.80
27940;DHT22;15275;51.716;14.324;2023-08-06T08:39:02;21.10;83.80
27940;DHT22;15275;51.716;14.324;2023-08-06T08:41:29;21.10;83.70
27940;DHT22;15275;51.716;14.324;2023-08-06T08:43:56;21.10;83.70
27940;DHT22;15275;51.716;14.324;2023-08-06T08:46:24;21.10;83.70
27940;DHT22;15275;51.716;14.324;2023-08-06T08:48:51;21.10;83.80
27940;DHT22;15275;51.716;14.324;2023-08-06T08:51:17;21.20;84.00
27940;DHT22;15275;51.716;14.324;2023-08-06T08:53:43;21.20;84.20
27940;DHT22;15275;51.716;14.324;2023-08-06T08:56:09;21.30;84.10
27940;DHT22;15275;51.716;14.324;2023-08-06T08:58:37;21.40;84.20
27940;DHT22;15275;51.716;14.324;2023-08-06T09:01:03;21.40;84.20
27940;DHT22;15275;51.716;14.324;2023-08-06T09:03:28;21.40;84.20
27940;DHT22;15275;51.716;14.324;2023-08-06T09:05:55;21.50;84.10
27940;DHT22;15275;51.716;14.324;2023-08-06T09:08:23;21.50;84.00
27940;DHT22;15275;51.716;14.324;2023-08-06T09:10:51;21.60;84.20
27940;DHT22;15275;51.716;14.324;2023-08-06T09:13:17;21.60;84.00
27940;DHT22;15275;51.716;14.324;2023-08-06T09:15:45;21.60;83.80
27940;DHT22;15275;51.716;14.324;2023-08-06T09:18:11;21.70;83.90
27940;DHT22;15275;51.716;14.324;2023-08-06T09:20:38;21.70;83.70
27940;DHT22;15275;51.716;14.324;2023-08-06T09:23:08;21.80;83.70
27940;DHT22;15275;51.716;14.324;2023-08-06T09:25:39;21.80;83.60
27940;DHT22;15275;51.716;14.324;2023-08-06T09:28:08;21.80;83.40
27940;DHT22;15275;51.716;14.324;2023-08-06T09:30:35;21.80;83.30
27940;DHT22;15275;51.716;14.324;2023-08-06T09:33:01;21.80;83.30
27940;DHT22;15275;51.716;14.324;2023-08-06T09:35:28;21.90;83.60
27940;DHT22;15275;51.716;14.324;2023-08-06T09:37:55;21.90;83.60
27940;DHT22;15275;51.716;14.324;2023-08-06T09:42:50;22.00;83.70
27940;DHT22;15275;51.716;14.324;2023-08-06T09:45:16;22.00;83.70
27940;DHT22;15275;51.716;14.324;2023-08-06T09:47:42;22.10;83.70
27940;DHT22;15275;51.716;14.324;2023-08-06T09:50:17;22.10;83.80
27940;DHT22;15275;51.716;14.324;2023-08-06T09:52:44;22.20;83.80
27940;DHT22;15275;51.716;14.324;2023-08-06T09:55:13;22.20;83.80
27940;DHT22;15275;51.716;14.324;2023-08-06T09:57:40;22.20;83.60
27940;DHT22;15275;51.716;14.324;2023-08-06T10:00:07;22.20;83.60
27940;DHT22;15275;51.716;14.324;2023-08-06T10:02:37;22.20;83.60
27940;DHT22;15275;51.716;14.324;2023-08-06T10:05:04;22.20;83.50
27940;DHT22;15275;51.716;14.324;2023-08-06T10:07:33;22.20;83.60
27940;DHT22;15275;51.716;14.324;2023-08-06T10:10:00;22.20;83.30
27940;DHT22;15275;51.716;14.324;2023-08-06T10:12:27;22.20;82.90
27940;DHT22;15275;51.716;14.324;2023-08-06T10:15:01;22.10;83.00
27940;DHT22;15275;51.716;14.324;2023-08-06T10:17:28;22.10;83.00
27940;DHT22;15275;51.716;14.324;2023-08-06T10:19:56;22.10;83.10
27940;DHT22;15275;51.716;14.324;2023-08-06T10:22:22;22.10;83.40
27940;DHT22;15275;51.716;14.324;2023-08-06T10:24:50;22.10;83.50
27940;DHT22;15275;51.716;14.324;2023-08-06T10:27:27;22.10;83.40
27940;DHT22;15275;51.716;14.324;2023-08-06T10:32:52;22.10;83.40
27940;DHT22;15275;51.716;14.324;2023-08-06T10:35:35;22.00;83.60
27940;DHT22;15275;51.716;14.324;2023-08-06T10:38:14;22.00;83.70
27940;DHT22;15275;51.716;14.324;2023-08-06T10:40:42;22.00;83.80
27940;DHT22;15275;51.716;14.324;2023-08-06T10:46:00;22.10;84.00
27940;DHT22;15275;51.716;14.324;2023-08-06T10:51:09;22.10;84.10
27940;DHT22;15275;51.716;14.324;2023-08-06T10:53:36;22.20;84.40
27940;DHT22;15275;51.716;14.324;2023-08-06T10:56:11;22.20;84.40
27940;DHT22;15275;51.716;14.324;2023-08-06T10:58:41;22.20;84.30
27940;DHT22;15275;51.716;14.324;2023-08-06T11:01:07;22.20;84.30
27940;DHT22;15275;51.716;14.324;2023-08-06T11:03:34;22.20;84.60
27940;DHT22;15275;51.716;14.324;2023-08-06T11:06:00;22.20;84.40
27940;DHT22;15275;51.716;14.324;2023-08-06T11:08:26;22.20;84.40
27940;DHT22;15275;51.716;14.324;2023-08-06T11:10:52;22.30;84.30
27940;DHT22;15275;51.716;14.324;2023-08-06T11:13:19;22.30;84.20
27940;DHT22;15275;51.716;14.324;2023-08-06T11:15:46;22.30;84.10
27940;DHT22;15275;51.716;14.324;2023-08-06T11:18:11;22.30;84.10
27940;DHT22;15275;51.716;14.324;2023-08-06T11:20:37;22.30;84.10
27940;DHT22;15275;51.716;14.324;2023-08-06T11:23:04;22.30;84.20
27940;DHT22;15275;51.716;14.324;2023-08-06T11:25:35;22.30;84.20
27940;DHT22;15275;51.716;14.324;2023-08-06T11:28:02;22.30;84.10
27940;DHT22;15275;51.716;14.324;2023-08-06T11:30:27;22.30;84.00
27940;DHT22;15275;51.716;14.324;2023-08-06T11:32:53;22.30;84.00
27940;DHT22;15275;51.716;14.324;2023-08-06T11:35:19;22.30;83.90
27940;DHT22;15275;51.716;14.324;2023-08-06T11:37:45;22.30;83.70
27940;DHT22;15275;51.716;14.324;2023-08-06T11:40:11;22.30;83.70
27940;DHT22;15275;51.716;14.324;2023-08-06T11:42:37;22.40;83.50
27940;DHT22;15275;51.716;14.324;2023-08-06T11:45:03;22.40;83.30
27940;DHT22;15275;51.716;14.324;2023-08-06T11:47:30;22.40;83.10
27940;DHT22;15275;51.716;14.324;2023-08-06T11:49:56;22.40;83.10
27940;DHT22;15275;51.716;14.324;2023-08-06T11:52:25;22.40;83.20
27940;DHT22;15275;51.716;14.324;2023-08-06T11:55:04;22.40;83.10
27940;DHT22;15275;51.716;14.324;2023-08-06T11:57:37;22.40;83.00
27940;DHT22;15275;51.716;14.324;2023-08-06T12:00:14;22.40;83.10
27940;DHT22;15275;51.716;14.324;2023-08-06T12:02:40;22.40;83.00
27940;DHT22;15275;51.716;14.324;2023-08-06T12:07:43;22.40;83.20
27940;DHT22;15275;51.716;14.324;2023-08-06T12:10:10;22.40;83.10
27940;DHT22;15275;51.716;14.324;2023-08-06T12:12:37;22.30;83.00
27940;DHT22;15275;51.716;14.324;2023-08-06T12:15:04;22.30;82.80
27940;DHT22;15275;51.716;14.324;2023-08-06T12:17:31;22.30;82.70
27940;DHT22;15275;51.716;14.324;2023-08-06T12:19:57;22.30;82.60
27940;DHT22;15275;51.716;14.324;2023-08-06T12:22:23;22.30;82.70
27940;DHT22;15275;51.716;14.324;2023-08-06T12:24:49;22.30;82.70
27940;DHT22;15275;51.716;14.324;2023-08-06T12:27:15;22.30;82.90
27940;DHT22;15275;51.716;14.324;2023-08-06T12:29:42;22.30;82.90
27940;DHT22;15275;51.716;14.324;2023-08-06T12:32:12;22.30;83.10
27940;DHT22;15275;51.716;14.324;2023-08-06T12:34:38;22.30;83.20
27940;DHT22;15275;51.716;14.324;2023-08-06T12:37:05;22.30;83.20
27940;DHT22;15275;51.716;14.324;2023-08-06T12:39:31;22.40;83.20
27940;DHT22;15275;51.716;14.324;2023-08-06T12:41:58;22.40;83.30
27940;DHT22;15275;51.716;14.324;2023-08-06T12:44:25;22.40;83.20
27940;DHT22;15275;51.716;14.324;2023-08-06T12:46:51;22.50;83.20
27940;DHT22;15275;51.716;14.324;2023-08-06T12:49:17;22.50;83.10
27940;DHT22;15275;51.716;14.324;2023-08-06T12:51:43;22.50;83.10
27940;DHT22;15275;51.716;14.324;2023-08-06T12:54:09;22.50;83.20
27940;DHT22;15275;51.716;14.324;2023-08-06T12:56:35;22.50;83.20
27940;DHT22;15275;51.716;14.324;2023-08-06T12:59:00;22.60;83.20
27940;DHT22;15275;51.716;14.324;2023-08-06T13:01:26;22.60;83.30
27940;DHT22;15275;51.716;14.324;2023-08-06T13:03:52;22.60;83.40
27940;DHT22;15275;51.716;14.324;2023-08-06T13:06:17;22.60;83.30
27940;DHT22;15275;51.716;14.324;2023-08-06T13:08:43;22.60;83.10
27940;DHT22;15275;51.716;14.324;2023-08-06T13:11:09;22.60;83.20
27940;DHT22;15275;51.716;14.324;2023-08-06T13:13:35;22.60;83.20
27940;DHT22;15275;51.716;14.324;2023-08-06T13:16:01;22.60;83.10
27940;DHT22;15275;51.716;14.324;2023-08-06T13:18:26;22.50;83.10
27940;DHT22;15275;51.716;14.324;2023-08-06T13:20:53;22.50;82.90
27940;DHT22;15275;51.716;14.324;2023-08-06T13:23:19;22.50;83.10
27940;DHT22;15275;51.716;14.324;2023-08-06T13:25:45;22.40;83.20
27940;DHT22;15275;51.716;14.324;2023-08-06T13:28:11;22.40;83.30
27940;DHT22;15275;51.716;14.324;2023-08-06T13:30:39;22.40;83.30
27940;DHT22;15275;51.716;14.324;2023-08-06T13:33:10;22.40;83.40
27940;DHT22;15275;51.716;14.324;2023-08-06T13:35:37;22.40;83.30
27940;DHT22;15275;51.716;14.324;2023-08-06T13:38:03;22.40;83.10
27940;DHT22;15275;51.716;14.324;2023-08-06T13:40:29;22.40;83.10
27940;DHT22;15275;51.716;14.324;2023-08-06T13:42:58;22.40;83.20
27940;DHT22;15275;51.716;14.324;2023-08-06T13:45:23;22.40;83.20
27940;DHT22;15275;51.716;14.324;2023-08-06T13:47:49;22.40;83.30
27940;DHT22;15275;51.716;14.324;2023-08-06T13:50:15;22.40;83.40
27940;DHT22;15275;51.716;14.324;2023-08-06T13:52:41;22.40;83.40
27940;DHT22;15275;51.716;14.324;2023-08-06T13:55:07;22.50;83.50
27940;DHT22;15275;51.716;14.324;2023-08-06T13:57:34;22.50;83.60
27940;DHT22;15275;51.716;14.324;2023-08-06T14:00:00;22.50;83.50
27940;DHT22;15275;51.716;14.324;2023-08-06T14:02:26;22.50;83.40
27940;DHT22;15275;51.716;14.324;2023-08-06T14:04:52;22.60;83.30
27940;DHT22;15275;51.716;14.324;2023-08-06T14:07:18;22.60;83.30
27940;DHT22;15275;51.716;14.324;2023-08-06T14:09:44;22.60;83.30
27940;DHT22;15275;51.716;14.324;2023-08-06T14:12:09;22.60;83.40
27940;DHT22;15275;51.716;14.324;2023-08-06T14:14:35;22.60;83.20
27940;DHT22;15275;51.716;14.324;2023-08-06T14:17:01;22.60;83.20
27940;DHT22;15275;51.716;14.324;2023-08-06T14:19:27;22.70;83.20
27940;DHT22;15275;51.716;14.324;2023-08-06T14:21:54;22.70;83.10
27940;DHT22;15275;51.716;14.324;2023-08-06T14:24:20;22.60;82.90
27940;DHT22;15275;51.716;14.324;2023-08-06T14:26:46;22.60;82.90
27940;DHT22;15275;51.716;14.324;2023-08-06T14:29:12;22.60;82.70
27940;DHT22;15275;51.716;14.324;2023-08-06T14:31:39;22.60;82.80
27940;DHT22;15275;51.716;14.324;2023-08-06T14:34:05;22.60;82.80
27940;DHT22;15275;51.716;14.324;2023-08-06T14:36:32;22.50;82.80
27940;DHT22;15275;51.716;14.324;2023-08-06T14:38:57;22.50;82.90
27940;DHT22;15275;51.716;14.324;2023-08-06T14:41:23;22.50;82.90
27940;DHT22;15275;51.716;14.324;2023-08-06T14:43:49;22.50;83.00
27940;DHT22;15275;51.716;14.324;2023-08-06T14:46:15;22.50;83.00
27940;DHT22;15275;51.716;14.324;2023-08-06T14:48:41;22.60;83.00
27940;DHT22;15275;51.716;14.324;2023-08-06T14:51:07;22.60;83.00
27940;DHT22;15275;51.716;14.324;2023-08-06T14:53:33;22.60;83.00
27940;DHT22;15275;51.716;14.324;2023-08-06T14:55:59;22.60;83.10
27940;DHT22;15275;51.716;14.324;2023-08-06T14:58:25;22.60;83.10
27940;DHT22;15275;51.716;14.324;2023-08-06T15:00:51;22.60;83.20
27940;DHT22;15275;51.716;14.324;2023-08-06T15:03:16;22.60;83.20
27940;DHT22;15275;51.716;14.324;2023-08-06T15:05:48;22.60;83.30
27940;DHT22;15275;51.716;14.324;2023-08-06T15:08:14;22.70;83.30
27940;DHT22;15275;51.716;14.324;2023-08-06T15:10:40;22.70;83.50
27940;DHT22;15275;51.716;14.324;2023-08-06T15:13:06;22.70;83.20
27940;DHT22;15275;51.716;14.324;2023-08-06T15:15:31;22.70;82.90
27940;DHT22;15275;51.716;14.324;2023-08-06T15:17:57;22.70;82.90
27940;DHT22;15275;51.716;14.324;2023-08-06T15:20:23;22.70;82.80
27940;DHT22;15275;51.716;14.324;2023-08-06T15:22:49;22.70;82.90
27940;DHT22;15275;51.716;14.324;2023-08-06T15:25:15;22.70;82.90
27940;DHT22;15275;51.716;14.324;2023-08-06T15:27:41;22.70;82.90
27940;DHT22;15275;51.716;14.324;2023-08-06T15:30:07;22.70;82.90
27940;DHT22;15275;51.716;14.324;2023-08-06T15:32:33;22.70;83.00